createdAt,value
2019-05-06T00:00:27.105Z,8.38
2019-05-06T00:01:27.509Z,8.41
2019-05-06T00:02:27.915Z,8.42
2019-05-06T00:03:28.327Z,8.36
2019-05-06T00:04:28.764Z,8.30
2019-05-06T00:05:29.178Z,8.42
2019-05-06T00:06:29.601Z,8.37
2019-05-06T00:07:30.039Z,8.31
2019-05-06T00:08:30.462Z,8.26
2019-05-06T00:09:30.885Z,8.28
2019-05-06T00:10:31.304Z,8.27
2019-05-06T00:11:31.731Z,8.34
2019-05-06T00:12:33.514Z,8.34
2019-05-06T00:13:34.376Z,8.23
2019-05-06T00:14:33.953Z,8.27
2019-05-06T00:15:34.363Z,8.20
2019-05-06T00:16:34.668Z,8.27
2019-05-06T00:17:34.898Z,8.10
2019-05-06T00:18:34.704Z,8.26
2019-05-06T00:19:35.132Z,8.16
2019-05-06T00:20:35.557Z,8.15
2019-05-06T00:21:35.986Z,8.08
2019-05-06T00:22:36.409Z,8.10
2019-05-06T00:23:38.231Z,8.06
2019-05-06T00:24:37.248Z,8.13
2019-05-06T00:25:37.672Z,8.09
2019-05-06T00:26:38.103Z,8.10
2019-05-06T00:27:38.534Z,8.08
2019-05-06T00:28:38.949Z,8.08
2019-05-06T00:29:39.378Z,8.06
2019-05-06T00:30:39.804Z,8.10
2019-05-06T00:31:40.224Z,8.13
2019-05-06T00:32:40.671Z,8.08
2019-05-06T00:33:41.110Z,8.10
2019-05-06T00:34:43.598Z,8.12
2019-05-06T00:37:15.047Z,8.13
2019-05-06T00:39:48.569Z,8.13
2019-05-06T00:40:48.976Z,8.09
2019-05-06T00:42:44.562Z,8.13
2019-05-06T00:43:43.995Z,8.20
2019-05-06T00:47:28.333Z,8.16
2019-05-06T00:48:28.781Z,8.16
2019-05-06T00:50:23.983Z,8.24
2019-05-06T00:51:24.161Z,8.26
2019-05-06T00:53:18.292Z,8.24
2019-05-06T00:54:18.713Z,8.24
2019-05-06T00:56:14.237Z,8.24
2019-05-06T00:57:14.664Z,8.30
2019-05-06T00:59:09.220Z,8.30
2019-05-06T01:00:09.630Z,8.26
2019-05-06T01:02:04.711Z,8.31
2019-05-06T01:03:04.587Z,8.33
2019-05-06T01:04:59.141Z,8.41
2019-05-06T01:05:59.551Z,8.38
2019-05-06T01:07:54.933Z,8.41
2019-05-06T01:08:54.577Z,8.44
2019-05-06T01:10:49.097Z,8.46
2019-05-06T01:11:49.496Z,8.49
2019-05-06T01:13:44.063Z,8.48
2019-05-06T01:14:44.463Z,8.56
2019-05-06T01:16:39.009Z,8.63
2019-05-06T01:17:39.437Z,8.66
2019-05-06T01:19:34.267Z,8.69
2019-05-06T01:20:34.426Z,8.70
2019-05-06T01:22:28.938Z,8.71
2019-05-06T01:23:29.363Z,8.64
2019-05-06T01:25:23.924Z,8.73
2019-05-06T01:26:24.437Z,8.67
2019-05-06T01:28:18.890Z,8.67
2019-05-06T01:29:19.314Z,8.63
2019-05-06T01:31:14.853Z,8.64
2019-05-06T01:32:15.270Z,8.63
2019-05-06T01:34:09.822Z,8.67
2019-05-06T01:35:10.239Z,8.69
2019-05-06T01:37:04.790Z,8.70
2019-05-06T01:38:05.210Z,8.71
2019-05-06T01:39:59.765Z,8.69
2019-05-06T01:41:00.181Z,8.53
2019-05-06T01:42:54.723Z,8.56
2019-05-06T01:43:55.158Z,8.51
2019-05-06T01:45:49.705Z,8.58
2019-05-06T01:46:50.131Z,8.55
2019-05-06T01:48:45.661Z,8.41
2019-05-06T01:49:46.091Z,8.46
2019-05-06T01:51:40.630Z,8.45
2019-05-06T01:52:41.048Z,8.46
2019-05-06T01:54:35.603Z,8.33
2019-05-06T01:55:36.025Z,8.38
2019-05-06T01:57:30.590Z,8.33
2019-05-06T01:58:31.010Z,8.26
2019-05-06T02:00:26.555Z,8.36
2019-05-06T02:01:26.958Z,8.44
2019-05-06T02:03:21.510Z,8.37
2019-05-06T02:04:21.941Z,8.38
2019-05-06T02:06:17.472Z,8.27
2019-05-06T02:07:17.887Z,8.30
2019-05-06T02:09:13.740Z,8.23
2019-05-06T02:10:14.224Z,8.19
2019-05-06T02:12:07.894Z,8.16
2019-05-06T02:13:08.316Z,8.16
2019-05-06T02:15:04.018Z,8.06
2019-05-06T02:16:03.980Z,7.98
2019-05-06T02:17:57.812Z,8.01
2019-05-06T02:18:58.235Z,7.94
2019-05-06T02:20:53.886Z,7.95
2019-05-06T02:21:54.421Z,7.87
2019-05-06T02:23:48.734Z,7.85
2019-05-06T02:24:49.165Z,7.83
2019-05-06T02:26:43.839Z,7.80
2019-05-06T02:27:44.533Z,7.85
2019-05-06T02:29:38.686Z,7.76
2019-05-06T02:30:39.104Z,7.67
2019-05-06T02:32:35.958Z,7.73
2019-05-06T02:33:35.557Z,7.63
2019-05-06T02:34:36.396Z,7.61
2019-05-06T02:35:35.055Z,7.53
2019-05-06T02:36:35.341Z,7.63
2019-05-06T02:37:35.761Z,7.53
2019-05-06T02:38:46.573Z,7.45
2019-05-06T02:39:36.610Z,7.50
2019-05-06T02:40:37.032Z,7.53
2019-05-06T02:41:37.460Z,7.50
2019-05-06T02:42:37.885Z,7.53
2019-05-06T02:43:38.317Z,7.51
2019-05-06T02:44:38.730Z,7.51
2019-05-06T02:45:39.154Z,7.39
2019-05-06T02:46:39.578Z,7.48
2019-05-06T02:47:42.762Z,7.35
2019-05-06T02:48:43.200Z,7.35
2019-05-06T02:49:44.122Z,7.35
2019-05-06T02:50:42.713Z,7.40
2019-05-06T02:51:44.225Z,7.36
2019-05-06T02:52:44.068Z,7.29
2019-05-06T02:53:43.050Z,7.31
2019-05-06T02:54:42.982Z,7.38
2019-05-06T02:55:43.395Z,7.36
2019-05-06T02:56:43.827Z,7.33
2019-05-06T02:57:44.287Z,7.32
2019-05-06T02:58:44.665Z,7.25
2019-05-06T02:59:45.093Z,7.28
2019-05-06T03:00:45.517Z,7.18
2019-05-06T03:01:45.940Z,7.23
2019-05-06T03:02:48.150Z,7.20
2019-05-06T03:03:46.787Z,7.18
2019-05-06T03:04:47.211Z,7.24
2019-05-06T03:05:47.634Z,7.03
2019-05-06T03:06:48.063Z,7.18
2019-05-06T03:07:48.482Z,7.17
2019-05-06T03:08:48.922Z,7.06
2019-05-06T03:09:49.343Z,6.92
2019-05-06T03:10:49.764Z,6.88
2019-05-06T03:11:53.620Z,6.84
2019-05-06T03:12:53.481Z,6.82
2019-05-06T03:13:53.482Z,6.78
2019-05-06T03:14:53.267Z,6.87
2019-05-06T03:15:54.095Z,6.75
2019-05-06T03:16:53.815Z,6.77
2019-05-06T03:17:55.360Z,6.70
2019-05-06T03:18:53.628Z,6.75
2019-05-06T03:19:53.575Z,6.75
2019-05-06T03:20:53.987Z,6.93
2019-05-06T03:21:54.896Z,6.78
2019-05-06T03:22:54.837Z,6.75
2019-05-06T03:23:55.263Z,6.74
2019-05-06T03:24:55.682Z,6.75
2019-05-06T03:25:56.105Z,6.72
2019-05-06T03:26:57.225Z,6.79
2019-05-06T03:27:56.955Z,6.60
2019-05-06T03:28:57.379Z,6.63
2019-05-06T03:29:57.806Z,6.66
2019-05-06T03:30:58.223Z,6.63
2019-05-06T03:31:58.647Z,6.51
2019-05-06T03:33:30.274Z,6.56
2019-05-06T03:34:22.125Z,6.54
2019-05-06T03:35:19.343Z,6.57
2019-05-06T03:36:09.477Z,6.63
2019-05-06T03:37:06.526Z,6.64
2019-05-06T03:38:03.890Z,6.69
2019-05-06T03:39:03.061Z,6.57
2019-05-06T03:40:03.015Z,6.51
2019-05-06T03:41:03.137Z,6.56
2019-05-06T03:42:04.532Z,6.54
2019-05-06T03:43:03.302Z,6.52
2019-05-06T03:44:03.723Z,6.41
2019-05-06T03:45:04.552Z,6.39
2019-05-06T03:46:04.767Z,6.41
2019-05-06T03:47:05.677Z,6.42
2019-05-06T03:48:06.128Z,6.41
2019-05-06T03:49:05.842Z,6.46
2019-05-06T03:50:06.265Z,6.44
2019-05-06T03:51:06.713Z,6.36
2019-05-06T03:52:07.117Z,6.36
2019-05-06T03:53:07.533Z,6.38
2019-05-06T03:54:07.973Z,6.30
2019-05-06T03:55:08.378Z,6.31
2019-05-06T03:56:08.800Z,6.31
2019-05-06T03:57:09.226Z,6.27
2019-05-06T03:58:09.648Z,6.38
2019-05-06T03:59:10.077Z,6.27
2019-05-06T04:00:13.030Z,6.30
2019-05-06T04:01:13.159Z,6.31
2019-05-06T04:02:13.255Z,6.30
2019-05-06T04:03:14.078Z,6.36
2019-05-06T04:04:12.684Z,6.22
2019-05-06T04:05:13.476Z,6.27
2019-05-06T04:06:13.836Z,6.28
2019-05-06T04:07:14.056Z,6.27
2019-05-06T04:08:13.879Z,6.31
2019-05-06T04:09:14.301Z,6.27
2019-05-06T04:10:14.729Z,6.27
2019-05-06T04:11:15.146Z,6.33
2019-05-06T04:12:15.583Z,6.30
2019-05-06T04:13:15.999Z,6.30
2019-05-06T04:14:16.421Z,6.27
2019-05-06T04:15:16.843Z,6.28
2019-05-06T04:16:17.264Z,6.27
2019-05-06T04:17:17.688Z,6.31
2019-05-06T04:18:18.110Z,6.35
2019-05-06T04:19:18.535Z,6.38
2019-05-06T04:20:18.958Z,6.31
2019-05-06T04:21:19.381Z,6.38
2019-05-06T04:22:19.802Z,6.31
2019-05-06T04:23:23.192Z,6.38
2019-05-06T04:24:22.912Z,6.35
2019-05-06T04:25:23.339Z,6.38
2019-05-06T04:26:23.944Z,6.27
2019-05-06T04:27:22.843Z,6.33
2019-05-06T04:28:23.851Z,6.30
2019-05-06T04:29:24.097Z,6.44
2019-05-06T04:30:24.320Z,6.45
2019-05-06T04:31:23.610Z,6.48
2019-05-06T04:32:24.034Z,6.52
2019-05-06T04:33:24.467Z,6.66
2019-05-06T04:34:24.881Z,6.56
2019-05-06T04:35:25.301Z,6.63
2019-05-06T04:36:25.725Z,6.78
2019-05-06T04:37:26.150Z,6.64
2019-05-06T04:38:26.573Z,6.59
2019-05-06T04:39:27.000Z,6.56
2019-05-06T04:40:27.425Z,6.64
2019-05-06T04:41:27.839Z,6.52
2019-05-06T04:42:28.275Z,6.54
2019-05-06T04:43:28.687Z,6.64
2019-05-06T04:44:29.122Z,6.67
2019-05-06T04:45:29.544Z,6.57
2019-05-06T04:46:29.961Z,6.60
2019-05-06T04:47:32.765Z,6.66
2019-05-06T04:48:32.976Z,6.48
2019-05-06T04:49:33.083Z,6.59
2019-05-06T04:50:33.107Z,6.52
2019-05-06T04:51:33.377Z,6.59
2019-05-06T04:52:34.313Z,6.56
2019-05-06T04:53:33.853Z,6.66
2019-05-06T04:54:33.722Z,6.57
2019-05-06T04:55:33.827Z,6.64
2019-05-06T04:56:34.202Z,6.70
2019-05-06T04:57:34.621Z,6.69
2019-05-06T04:58:35.048Z,6.69
2019-05-06T04:59:35.466Z,6.77
2019-05-06T05:00:35.894Z,6.69
2019-05-06T05:01:36.318Z,6.69
2019-05-06T05:02:36.741Z,6.84
2019-05-06T05:03:37.163Z,6.79
2019-05-06T05:04:37.585Z,6.75
2019-05-06T05:05:38.015Z,6.87
2019-05-06T05:06:38.435Z,6.85
2019-05-06T05:07:38.850Z,6.99
2019-05-06T05:08:39.285Z,7.06
2019-05-06T05:09:39.700Z,6.89
2019-05-06T05:10:40.126Z,6.88
2019-05-06T05:11:42.532Z,6.95
2019-05-06T05:12:42.682Z,7.03
2019-05-06T05:13:43.356Z,7.03
2019-05-06T05:14:42.311Z,6.97
2019-05-06T05:15:42.248Z,7.13
2019-05-06T05:16:42.668Z,7.23
2019-05-06T05:17:43.093Z,7.15
2019-05-06T05:18:43.530Z,7.28
2019-05-06T05:19:43.947Z,7.28
2019-05-06T05:20:46.782Z,7.40
2019-05-06T05:21:44.786Z,7.33
2019-05-06T05:22:45.210Z,7.18
2019-05-06T05:23:45.642Z,7.15
2019-05-06T05:24:46.057Z,7.18
2019-05-06T05:25:46.521Z,7.06
2019-05-06T05:26:47.209Z,7.05
2019-05-06T05:27:47.331Z,7.06
2019-05-06T05:28:47.762Z,7.10
2019-05-06T05:29:48.179Z,7.10
2019-05-06T05:30:48.602Z,7.21
2019-05-06T05:31:49.036Z,7.24
2019-05-06T05:32:49.452Z,7.32
2019-05-06T05:33:49.887Z,7.31
2019-05-06T05:34:52.113Z,7.35
2019-05-06T05:35:52.589Z,7.42
2019-05-06T05:36:52.053Z,7.40
2019-05-06T05:37:52.920Z,7.42
2019-05-06T05:38:52.342Z,7.58
2019-05-06T05:39:52.425Z,7.61
2019-05-06T05:40:52.846Z,7.66
2019-05-06T05:41:53.275Z,7.72
2019-05-06T05:42:53.690Z,7.61
2019-05-06T05:43:54.121Z,7.61
2019-05-06T05:44:54.549Z,7.53
2019-05-06T05:45:54.966Z,7.40
2019-05-06T05:46:55.396Z,7.38
2019-05-06T05:47:55.821Z,7.47
2019-05-06T05:48:56.243Z,7.47
2019-05-06T05:49:56.665Z,7.51
2019-05-06T05:50:57.099Z,7.61
2019-05-06T05:51:57.552Z,7.60
2019-05-06T05:52:57.938Z,7.60
2019-05-06T05:53:58.364Z,7.72
2019-05-06T05:54:58.789Z,7.91
2019-05-06T05:55:59.210Z,7.80
2019-05-06T05:56:59.641Z,7.90
2019-05-06T05:58:00.071Z,7.75
2019-05-06T05:59:03.011Z,7.77
2019-05-06T06:00:00.915Z,7.63
2019-05-06T06:01:03.947Z,7.63
2019-05-06T06:02:03.756Z,7.75
2019-05-06T06:03:02.902Z,7.76
2019-05-06T06:04:03.017Z,7.79
2019-05-06T06:05:03.037Z,7.80
2019-05-06T06:06:03.458Z,7.76
2019-05-06T06:07:03.883Z,7.83
2019-05-06T06:08:04.310Z,8.01
2019-05-06T06:09:04.736Z,8.10
2019-05-06T06:10:05.156Z,7.98
2019-05-06T06:11:05.586Z,7.75
2019-05-06T06:12:06.009Z,7.80
2019-05-06T06:13:06.429Z,8.00
2019-05-06T06:14:06.865Z,8.05
2019-05-06T06:15:07.281Z,8.13
2019-05-06T06:16:07.708Z,8.03
2019-05-06T06:17:08.140Z,8.18
2019-05-06T06:18:08.559Z,8.20
2019-05-06T06:19:08.984Z,8.19
2019-05-06T06:20:09.411Z,8.26
2019-05-06T06:21:19.233Z,8.24
2019-05-06T06:22:11.822Z,8.24
2019-05-06T06:23:10.682Z,8.27
2019-05-06T06:24:12.999Z,8.51
2019-05-06T06:25:14.198Z,8.63
2019-05-06T06:26:12.215Z,8.61
2019-05-06T06:27:12.582Z,8.67
2019-05-06T06:28:12.818Z,8.63
2019-05-06T06:29:13.241Z,8.81
2019-05-06T06:30:13.675Z,8.76
2019-05-06T06:31:14.091Z,9.11
2019-05-06T06:32:14.514Z,9.41
2019-05-06T06:33:14.943Z,9.48
2019-05-06T06:34:15.369Z,9.68
2019-05-06T06:35:18.710Z,9.59
2019-05-06T06:36:16.219Z,10.12
2019-05-06T06:37:16.646Z,10.40
2019-05-06T06:38:17.080Z,11.19
2019-05-06T06:39:17.501Z,12.13
2019-05-06T06:40:17.929Z,12.62
2019-05-06T06:41:18.356Z,13.13
2019-05-06T06:42:18.787Z,13.11
2019-05-06T06:43:19.218Z,11.81
2019-05-06T06:44:19.645Z,12.91
2019-05-06T06:45:20.134Z,12.86
2019-05-06T06:46:22.376Z,13.33
2019-05-06T06:47:22.505Z,12.85
2019-05-06T06:48:22.911Z,12.24
2019-05-06T06:49:22.369Z,12.45
2019-05-06T06:50:22.235Z,12.47
2019-05-06T06:51:23.466Z,12.22
2019-05-06T06:52:23.351Z,12.97
2019-05-06T06:53:23.535Z,14.08
2019-05-06T06:54:23.979Z,13.39
2019-05-06T06:55:24.413Z,13.71
2019-05-06T06:56:24.846Z,13.30
2019-05-06T06:57:25.293Z,12.31
2019-05-06T06:58:25.724Z,12.25
2019-05-06T06:59:26.168Z,11.77
2019-05-06T07:00:26.601Z,11.75
2019-05-06T07:01:27.031Z,13.16
2019-05-06T07:02:27.599Z,12.72
2019-05-06T07:03:27.912Z,12.31
2019-05-06T07:04:28.350Z,12.62
2019-05-06T07:05:28.829Z,12.73
2019-05-06T07:06:29.225Z,12.35
2019-05-06T07:07:41.363Z,12.46
2019-05-06T07:08:34.888Z,12.78
2019-05-06T07:09:32.284Z,12.40
2019-05-06T07:10:32.424Z,11.12
2019-05-06T07:11:33.142Z,10.68
2019-05-06T07:12:32.791Z,11.11
2019-05-06T07:13:32.795Z,11.04
2019-05-06T07:14:35.974Z,10.87
2019-05-06T07:15:33.753Z,10.49
2019-05-06T07:16:33.643Z,10.40
2019-05-06T07:17:34.039Z,10.35
2019-05-06T07:18:34.474Z,11.10
2019-05-06T07:19:34.910Z,11.65
2019-05-06T07:20:35.340Z,11.05
2019-05-06T07:21:36.212Z,11.60
2019-05-06T07:22:36.219Z,12.18
2019-05-06T07:23:36.653Z,12.37
2019-05-06T07:24:37.093Z,12.80
2019-05-06T07:25:37.520Z,12.60
2019-05-06T07:26:37.952Z,11.68
2019-05-06T07:27:38.390Z,11.23
2019-05-06T07:28:38.821Z,11.63
2019-05-06T07:29:39.255Z,11.12
2019-05-06T07:30:41.576Z,11.62
2019-05-06T07:31:42.504Z,12.49
2019-05-06T07:32:42.368Z,12.79
2019-05-06T07:33:42.950Z,13.33
2019-05-06T07:34:42.022Z,13.50
2019-05-06T07:35:43.918Z,13.16
2019-05-06T07:36:43.120Z,13.23
2019-05-06T07:37:42.765Z,13.44
2019-05-06T07:38:43.200Z,12.68
2019-05-06T07:39:43.644Z,13.50
2019-05-06T07:40:44.077Z,13.78
2019-05-06T07:41:46.091Z,14.26
2019-05-06T07:42:44.956Z,13.63
2019-05-06T07:43:45.412Z,13.75
2019-05-06T07:44:45.842Z,13.71
2019-05-06T07:45:46.277Z,13.68
2019-05-06T07:46:46.717Z,14.22
2019-05-06T07:47:47.148Z,13.33
2019-05-06T07:48:47.611Z,12.62
2019-05-06T07:49:48.040Z,13.20
2019-05-06T07:50:49.290Z,13.33
2019-05-06T07:51:48.909Z,13.62
2019-05-06T07:52:49.350Z,14.15
2019-05-06T07:53:52.340Z,14.70
2019-05-06T07:54:50.232Z,14.91
2019-05-06T07:55:52.483Z,15.27
2019-05-06T07:56:52.638Z,15.39
2019-05-06T07:57:52.519Z,15.62
2019-05-06T07:58:52.874Z,16.15
2019-05-06T07:59:52.679Z,16.79
2019-05-06T08:00:52.888Z,17.01
2019-05-06T08:01:54.032Z,17.12
2019-05-06T08:02:53.775Z,17.11
2019-05-06T08:03:54.219Z,16.93
2019-05-06T08:04:54.666Z,14.84
2019-05-06T08:05:58.683Z,14.66
2019-05-06T08:06:55.560Z,14.23
2019-05-06T08:07:56.000Z,15.37
2019-05-06T08:08:56.480Z,15.37
2019-05-06T08:09:56.894Z,15.19
2019-05-06T08:10:57.334Z,14.60
2019-05-06T08:11:57.779Z,15.57
2019-05-06T08:12:58.224Z,15.59
2019-05-06T08:13:58.672Z,14.11
2019-05-06T08:14:59.148Z,14.41
2019-05-06T08:15:59.591Z,15.62
2019-05-06T08:17:02.089Z,16.96
2019-05-06T08:18:00.474Z,17.29
2019-05-06T08:19:02.783Z,17.36
2019-05-06T08:20:02.567Z,16.86
2019-05-06T08:21:02.465Z,14.47
2019-05-06T08:22:02.811Z,13.72
2019-05-06T08:23:02.692Z,13.63
2019-05-06T08:24:03.139Z,13.86
2019-05-06T08:25:03.659Z,12.65
2019-05-06T08:26:11.940Z,12.83
2019-05-06T08:27:04.467Z,13.59
2019-05-06T08:28:04.909Z,13.99
2019-05-06T08:29:05.354Z,14.30
2019-05-06T08:30:05.792Z,15.86
2019-05-06T08:31:06.239Z,16.10
2019-05-06T08:32:06.680Z,15.57
2019-05-06T08:33:07.120Z,15.73
2019-05-06T08:34:07.574Z,15.47
2019-05-06T08:35:10.024Z,15.59
2019-05-06T08:36:14.013Z,16.42
2019-05-06T08:37:08.892Z,16.68
2019-05-06T08:38:09.342Z,17.22
2019-05-06T08:39:09.782Z,16.60
2019-05-06T08:40:11.989Z,17.22
2019-05-06T08:41:11.874Z,17.87
2019-05-06T08:42:13.424Z,18.96
2019-05-06T08:43:13.058Z,18.90
2019-05-06T08:44:12.741Z,18.63
2019-05-06T08:45:12.944Z,18.41
2019-05-06T08:46:12.906Z,18.40
2019-05-06T08:47:13.443Z,17.34
2019-05-06T08:48:13.801Z,17.95
2019-05-06T08:49:14.242Z,18.31
2019-05-06T08:50:14.692Z,19.69
2019-05-06T08:51:15.140Z,17.33
2019-05-06T08:52:15.582Z,18.83
2019-05-06T08:53:16.040Z,20.07
2019-05-06T08:54:16.484Z,20.80
2019-05-06T08:55:16.933Z,20.55
2019-05-06T08:56:17.393Z,18.22
2019-05-06T08:57:17.833Z,18.74
2019-05-06T08:58:18.289Z,18.33
2019-05-06T08:59:18.738Z,18.77
2019-05-06T09:00:19.187Z,18.59
2019-05-06T09:01:19.639Z,17.76
2019-05-06T09:02:20.092Z,15.43
2019-05-06T09:03:22.332Z,15.79
2019-05-06T09:04:22.819Z,15.29
2019-05-06T09:05:22.257Z,14.72
2019-05-06T09:06:29.289Z,13.65
2019-05-06T09:07:23.933Z,13.90
2019-05-06T09:08:22.829Z,14.08
2019-05-06T09:09:23.231Z,14.58
2019-05-06T09:10:23.665Z,14.96
2019-05-06T09:11:25.885Z,15.17
2019-05-06T09:12:24.544Z,14.29
2019-05-06T09:13:24.987Z,14.36
2019-05-06T09:14:25.432Z,14.47
2019-05-06T09:15:25.865Z,13.90
2019-05-06T09:16:26.301Z,13.46
2019-05-06T09:17:26.741Z,13.90
2019-05-06T09:18:27.183Z,14.20
2019-05-06T09:19:27.615Z,14.92
2019-05-06T09:20:28.058Z,15.51
2019-05-06T09:21:28.494Z,15.64
2019-05-06T09:22:28.934Z,15.09
2019-05-06T09:23:29.389Z,15.19
2019-05-06T09:24:31.926Z,14.81
2019-05-06T09:25:32.229Z,14.96
2019-05-06T09:26:32.343Z,14.17
2019-05-06T09:27:32.762Z,13.97
2019-05-06T09:28:33.767Z,13.65
2019-05-06T09:29:32.613Z,13.39
2019-05-06T09:30:33.110Z,13.28
2019-05-06T09:31:32.866Z,13.16
2019-05-06T09:32:36.061Z,13.16
2019-05-06T09:33:33.747Z,13.85
2019-05-06T09:34:34.166Z,14.66
2019-05-06T09:35:34.609Z,14.05
2019-05-06T09:36:44.206Z,14.54
2019-05-06T09:37:35.500Z,15.03
2019-05-06T09:38:35.921Z,15.90
2019-05-06T09:39:36.365Z,16.26
2019-05-06T09:40:36.802Z,15.77
2019-05-06T09:41:37.259Z,15.80
2019-05-06T09:42:37.683Z,15.33
2019-05-06T09:43:38.123Z,15.36
2019-05-06T09:44:38.557Z,15.02
2019-05-06T09:45:39.010Z,14.85
2019-05-06T09:46:39.436Z,15.14
2019-05-06T09:47:42.237Z,14.88
2019-05-06T09:48:42.463Z,14.99
2019-05-06T09:49:42.609Z,15.94
2019-05-06T09:50:45.487Z,17.04
2019-05-06T09:51:42.501Z,18.47
2019-05-06T09:52:42.684Z,19.40
2019-05-06T09:53:43.235Z,18.10
2019-05-06T09:54:42.960Z,18.88
2019-05-06T09:55:43.400Z,19.26
2019-05-06T09:56:43.843Z,18.40
2019-05-06T09:57:44.287Z,18.16
2019-05-06T09:58:44.739Z,17.52
2019-05-06T09:59:45.175Z,18.19
2019-05-06T10:00:45.627Z,18.44
2019-05-06T10:01:46.065Z,20.07
2019-05-06T10:02:49.500Z,19.85
2019-05-06T10:03:46.958Z,19.29
2019-05-06T10:04:47.408Z,19.31
2019-05-06T10:05:47.855Z,19.18
2019-05-06T10:06:56.379Z,18.34
2019-05-06T10:07:48.747Z,17.82
2019-05-06T10:08:49.190Z,17.52
2019-05-06T10:09:49.637Z,16.79
2019-05-06T10:10:58.589Z,16.17
2019-05-06T10:11:52.479Z,15.92
2019-05-06T10:12:53.039Z,15.51
2019-05-06T10:13:52.430Z,15.35
2019-05-06T10:14:53.231Z,15.44
2019-05-06T10:15:52.281Z,15.14
2019-05-06T10:16:52.721Z,15.18
2019-05-06T10:17:53.165Z,15.24
2019-05-06T10:18:53.595Z,15.51
2019-05-06T10:19:54.041Z,16.23
2019-05-06T10:20:54.468Z,17.11
2019-05-06T10:21:54.918Z,17.46
2019-05-06T10:22:55.348Z,17.97
2019-05-06T10:23:55.803Z,18.08
2019-05-06T10:24:56.232Z,19.41
2019-05-06T10:25:56.682Z,20.32
2019-05-06T10:26:57.121Z,20.16
2019-05-06T10:27:57.597Z,19.41
2019-05-06T10:28:58.019Z,19.26
2019-05-06T10:29:58.463Z,17.89
2019-05-06T10:30:58.903Z,17.45
2019-05-06T10:31:59.353Z,16.17
2019-05-06T10:33:01.991Z,15.15
2019-05-06T10:34:02.871Z,14.18
2019-05-06T10:35:02.754Z,14.48
2019-05-06T10:36:02.561Z,13.95
2019-05-06T10:37:14.622Z,13.35
2019-05-06T10:38:02.939Z,13.20
2019-05-06T10:39:02.484Z,13.46
2019-05-06T10:40:03.410Z,13.74
2019-05-06T10:41:07.406Z,14.08
2019-05-06T10:42:03.753Z,14.62
2019-05-06T10:43:04.192Z,14.85
2019-05-06T10:44:04.628Z,15.21
2019-05-06T10:45:05.073Z,16.33
2019-05-06T10:46:05.501Z,17.41
2019-05-06T10:47:05.942Z,18.55
2019-05-06T10:48:06.383Z,19.86
2019-05-06T10:49:06.833Z,20.90
2019-05-06T10:50:07.264Z,20.97
2019-05-06T10:51:07.726Z,21.00
2019-05-06T10:52:08.154Z,20.11
2019-05-06T10:53:08.601Z,18.93
2019-05-06T10:54:09.051Z,18.58
2019-05-06T10:55:09.512Z,17.92
2019-05-06T10:56:09.955Z,17.78
2019-05-06T10:57:12.412Z,18.23
2019-05-06T10:58:12.826Z,16.84
2019-05-06T10:59:12.994Z,17.49
2019-05-06T11:00:12.252Z,17.70
2019-05-06T11:01:12.643Z,18.00
2019-05-06T11:02:13.002Z,17.76
2019-05-06T11:03:14.890Z,17.27
2019-05-06T11:04:13.507Z,17.02
2019-05-06T11:05:13.945Z,17.38
2019-05-06T11:06:14.392Z,17.72
2019-05-06T11:07:28.194Z,18.34
2019-05-06T11:08:15.278Z,18.08
2019-05-06T11:09:15.734Z,15.24
2019-05-06T11:10:23.729Z,15.37
2019-05-06T11:11:31.268Z,15.91
2019-05-06T11:12:17.052Z,16.46
2019-05-06T11:13:17.497Z,16.26
2019-05-06T11:14:17.940Z,16.35
2019-05-06T11:15:18.377Z,16.42
2019-05-06T11:16:18.878Z,15.52
2019-05-06T11:17:19.262Z,15.61
2019-05-06T11:18:19.720Z,15.47
2019-05-06T11:19:22.284Z,14.97
2019-05-06T11:20:20.599Z,15.28
2019-05-06T11:21:22.593Z,15.19
2019-05-06T11:22:24.629Z,15.00
2019-05-06T11:23:22.001Z,14.94
2019-05-06T11:24:23.130Z,14.84
2019-05-06T11:25:23.079Z,15.52
2019-05-06T11:26:23.802Z,15.36
2019-05-06T11:27:28.777Z,15.04
2019-05-06T11:28:24.088Z,14.43
2019-05-06T11:29:24.525Z,14.99
2019-05-06T11:30:24.964Z,15.25
2019-05-06T11:31:25.400Z,15.39
2019-05-06T11:32:25.835Z,15.42
2019-05-06T11:33:26.284Z,15.25
2019-05-06T11:34:26.708Z,15.00
2019-05-06T11:35:27.158Z,15.06
2019-05-06T11:36:27.591Z,14.69
2019-05-06T11:37:28.013Z,14.86
2019-05-06T11:38:28.454Z,14.62
2019-05-06T11:39:28.883Z,15.00
2019-05-06T11:40:29.327Z,15.35
2019-05-06T11:41:32.103Z,14.97
2019-05-06T11:42:33.447Z,14.88
2019-05-06T11:43:32.458Z,14.96
2019-05-06T11:44:32.327Z,14.91
2019-05-06T11:45:32.236Z,15.02
2019-05-06T11:46:32.295Z,15.21
2019-05-06T11:47:32.662Z,14.92
2019-05-06T11:48:32.982Z,14.66
2019-05-06T11:49:33.250Z,14.88
2019-05-06T11:50:33.684Z,15.18
2019-05-06T11:51:34.111Z,15.06
2019-05-06T11:52:34.818Z,14.25
2019-05-06T11:53:34.984Z,14.59
2019-05-06T11:54:35.419Z,14.88
2019-05-06T11:55:38.905Z,14.91
2019-05-06T11:56:47.778Z,14.23
2019-05-06T11:57:36.722Z,14.41
2019-05-06T11:58:37.158Z,14.47
2019-05-06T11:59:37.594Z,14.50
2019-05-06T12:00:38.031Z,14.28
2019-05-06T12:01:38.465Z,13.95
2019-05-06T12:02:41.394Z,13.65
2019-05-06T12:03:39.325Z,13.63
2019-05-06T12:04:41.832Z,13.89
2019-05-06T12:05:41.835Z,13.90
2019-05-06T12:06:42.314Z,14.26
2019-05-06T12:07:43.392Z,14.58
2019-05-06T12:08:43.150Z,14.59
2019-05-06T12:09:41.936Z,15.03
2019-05-06T12:10:42.553Z,15.21
2019-05-06T12:11:43.349Z,15.39
2019-05-06T12:12:43.242Z,14.47
2019-05-06T12:13:43.683Z,14.17
2019-05-06T12:14:44.113Z,14.29
2019-05-06T12:15:44.546Z,14.69
2019-05-06T12:16:44.981Z,14.73
2019-05-06T12:17:45.414Z,14.54
2019-05-06T12:18:45.853Z,14.88
2019-05-06T12:19:46.301Z,15.02
2019-05-06T12:20:46.722Z,15.11
2019-05-06T12:21:47.151Z,15.18
2019-05-06T12:22:47.592Z,15.09
2019-05-06T12:23:48.023Z,14.18
2019-05-06T12:24:48.465Z,14.28
2019-05-06T12:25:48.896Z,14.36
2019-05-06T12:26:49.415Z,14.69
2019-05-06T12:27:52.473Z,14.73
2019-05-06T12:28:52.909Z,14.94
2019-05-06T12:29:52.821Z,14.65
2019-05-06T12:30:52.437Z,14.78
2019-05-06T12:31:52.982Z,14.35
2019-05-06T12:32:52.666Z,14.29
2019-05-06T12:33:53.316Z,14.28
2019-05-06T12:34:52.802Z,14.33
2019-05-06T12:35:53.240Z,14.68
2019-05-06T12:36:53.673Z,14.14
2019-05-06T12:37:54.110Z,14.41
2019-05-06T12:38:54.540Z,14.25
2019-05-06T12:39:54.993Z,14.69
2019-05-06T12:40:55.411Z,14.73
2019-05-06T12:41:55.852Z,14.69
2019-05-06T12:42:56.286Z,14.78
2019-05-06T12:43:56.722Z,14.82
2019-05-06T12:44:57.147Z,14.97
2019-05-06T12:45:57.583Z,14.79
2019-05-06T12:47:00.018Z,15.14
2019-05-06T12:47:58.458Z,15.36
2019-05-06T12:48:58.891Z,15.17
2019-05-06T12:49:59.324Z,15.31
2019-05-06T12:50:59.756Z,15.28
2019-05-06T12:52:00.187Z,15.24
2019-05-06T12:53:00.625Z,15.03
2019-05-06T12:54:03.290Z,14.86
2019-05-06T12:55:17.528Z,15.11
2019-05-06T12:56:03.080Z,14.96
2019-05-06T12:57:03.316Z,15.03
2019-05-06T12:58:03.038Z,14.70
2019-05-06T12:59:03.240Z,14.72
2019-05-06T13:00:03.717Z,14.59
2019-05-06T13:01:04.260Z,14.48
2019-05-06T13:02:04.541Z,14.55
2019-05-06T13:03:04.981Z,14.78
2019-05-06T13:04:05.421Z,14.91
2019-05-06T13:05:05.850Z,14.81
2019-05-06T13:06:08.480Z,14.18
2019-05-06T13:07:06.733Z,14.32
2019-05-06T13:08:07.170Z,14.25
2019-05-06T13:09:07.627Z,14.59
2019-05-06T13:10:08.022Z,14.68
2019-05-06T13:11:08.460Z,14.32
2019-05-06T13:12:08.890Z,14.73
2019-05-06T13:13:09.480Z,14.99
2019-05-06T13:14:09.757Z,14.99
2019-05-06T13:15:12.805Z,14.72
2019-05-06T13:16:12.587Z,14.59
2019-05-06T13:17:11.065Z,14.65
2019-05-06T13:18:11.499Z,14.99
2019-05-06T13:19:12.261Z,15.33
2019-05-06T13:20:14.627Z,15.06
2019-05-06T13:21:12.867Z,14.99
2019-05-06T13:22:13.543Z,14.84
2019-05-06T13:23:20.777Z,15.22
2019-05-06T13:24:14.106Z,14.73
2019-05-06T13:25:14.542Z,15.00
2019-05-06T13:26:14.977Z,15.03
2019-05-06T13:27:15.410Z,14.97
2019-05-06T13:28:15.875Z,15.03
2019-05-06T13:29:16.280Z,14.82
2019-05-06T13:30:16.707Z,15.09
2019-05-06T13:31:21.427Z,15.03
2019-05-06T13:32:17.581Z,14.79
2019-05-06T13:33:18.125Z,14.89
2019-05-06T13:34:18.669Z,15.07
2019-05-06T13:35:18.876Z,14.99
2019-05-06T13:36:19.318Z,15.02
2019-05-06T13:37:22.700Z,14.89
2019-05-06T13:38:22.044Z,14.72
2019-05-06T13:39:23.481Z,14.32
2019-05-06T13:40:23.023Z,14.32
2019-05-06T13:41:22.125Z,14.62
2019-05-06T13:42:22.709Z,14.68
2019-05-06T13:43:23.503Z,14.47
2019-05-06T13:44:23.028Z,14.86
2019-05-06T13:45:23.210Z,15.46
2019-05-06T13:46:23.765Z,15.09
2019-05-06T13:47:24.074Z,14.85
2019-05-06T13:48:24.524Z,14.88
2019-05-06T13:49:24.947Z,14.99